createdAt,value
2024-03-12T00:01:10.316Z,0.50
2024-03-12T00:03:13.113Z,0.40
2024-03-12T00:05:15.959Z,0.45
2024-03-12T00:07:23.178Z,0.35
2024-03-12T00:09:24.907Z,0.30
2024-03-12T00:11:26.915Z,0.60
2024-03-12T00:13:28.736Z,0.30
2024-03-12T00:15:30.576Z,0.30
2024-03-12T00:17:33.642Z,0.50
2024-03-12T00:19:35.245Z,0.38
2024-03-12T00:21:40.595Z,0.40
2024-03-12T00:23:43.293Z,0.40
2024-03-12T00:25:44.914Z,0.50
2024-03-12T00:27:47.666Z,0.40
2024-03-12T00:29:50.168Z,0.50
2024-03-12T00:31:52.534Z,0.50
2024-03-12T00:33:56.729Z,0.47
2024-03-12T00:36:01.626Z,0.30
2024-03-12T00:38:05.294Z,0.40
2024-03-12T00:40:12.285Z,0.40
2024-03-12T00:42:15.246Z,0.60
2024-03-12T00:44:16.914Z,0.30
2024-03-12T00:46:18.662Z,0.40
2024-03-12T00:48:20.590Z,0.30
2024-03-12T00:50:24.162Z,0.30
2024-03-12T00:52:26.046Z,0.40
2024-03-12T00:54:27.805Z,0.32
2024-03-12T00:56:29.442Z,0.40
2024-03-12T00:58:34.163Z,0.52
2024-03-12T01:00:38.064Z,0.40
2024-03-12T01:02:41.064Z,0.45
2024-03-12T01:04:42.752Z,0.30
2024-03-12T01:06:47.232Z,0.40
2024-03-12T01:08:48.896Z,0.30
2024-03-12T01:10:50.740Z,0.40
2024-03-12T01:12:52.711Z,0.50
2024-03-12T01:14:54.435Z,0.50
2024-03-12T01:16:56.159Z,0.30
2024-03-12T01:18:57.981Z,0.40
2024-03-12T01:20:59.600Z,0.40
2024-03-12T01:23:01.261Z,0.47
2024-03-12T01:25:04.142Z,0.38
2024-03-12T01:27:07.225Z,0.30
2024-03-12T01:29:08.825Z,0.30
2024-03-12T01:31:10.573Z,0.35
2024-03-12T01:33:12.260Z,0.30
2024-03-12T01:35:14.282Z,0.40
2024-03-12T01:37:17.207Z,0.38
2024-03-12T01:39:26.198Z,0.40
2024-03-12T01:41:27.823Z,0.40
2024-03-12T01:43:29.545Z,0.38
2024-03-12T01:45:34.173Z,0.30
2024-03-12T01:47:35.971Z,0.40
2024-03-12T01:49:37.646Z,0.40
2024-03-12T01:51:40.160Z,0.30
2024-03-12T01:53:42.420Z,0.40
2024-03-12T01:55:45.500Z,0.30
2024-03-12T01:57:48.796Z,0.40
2024-03-12T01:59:51.684Z,0.35
2024-03-12T02:02:01.128Z,0.30
2024-03-12T02:04:02.862Z,0.40
2024-03-12T02:06:04.558Z,0.30
2024-03-12T02:08:06.453Z,0.30
2024-03-12T02:10:09.462Z,0.30
2024-03-12T02:12:11.153Z,0.32
2024-03-12T02:14:12.788Z,0.40
2024-03-12T02:16:14.430Z,0.40
2024-03-12T02:18:16.199Z,0.30
2024-03-12T02:20:18.416Z,0.30
2024-03-12T02:22:20.240Z,0.30
2024-03-12T02:24:22.573Z,0.40
2024-03-12T02:26:25.733Z,0.28
2024-03-12T02:28:27.808Z,0.30
2024-03-12T02:30:29.703Z,0.32
2024-03-12T02:32:31.900Z,0.30
2024-03-12T02:34:33.516Z,0.40
2024-03-12T02:36:38.592Z,0.30
2024-03-12T02:38:40.604Z,0.30
2024-03-12T02:40:42.336Z,0.40
2024-03-12T02:42:44.277Z,0.30
2024-03-12T02:44:46.058Z,0.22
2024-03-12T02:46:50.864Z,0.30
2024-03-12T02:48:55.414Z,0.40
2024-03-12T02:50:57.461Z,0.40
2024-03-12T02:52:59.562Z,0.30
2024-03-12T02:55:01.921Z,0.30
2024-03-12T02:57:03.705Z,0.20
2024-03-12T02:59:05.298Z,0.30
2024-03-12T03:01:07.069Z,0.30
2024-03-12T03:03:08.800Z,0.25
2024-03-12T03:05:11.781Z,0.30
2024-03-12T03:07:13.823Z,0.30
2024-03-12T03:09:15.419Z,0.30
2024-03-12T03:11:17.345Z,0.35
2024-03-12T03:13:19.023Z,0.30
2024-03-12T03:15:21.959Z,0.20
2024-03-12T03:17:23.669Z,0.30
2024-03-12T03:19:25.256Z,0.28
2024-03-12T03:21:26.946Z,0.20
2024-03-12T03:23:28.615Z,0.30
2024-03-12T03:25:30.235Z,0.30
2024-03-12T03:27:32.287Z,0.30
2024-03-12T03:29:35.895Z,0.30
2024-03-12T03:31:37.473Z,0.32
2024-03-12T03:33:39.721Z,0.40
2024-03-12T03:35:41.639Z,0.20
2024-03-12T03:37:44.075Z,0.25
2024-03-12T03:39:45.880Z,0.30
2024-03-12T03:41:47.668Z,0.20
2024-03-12T03:43:49.404Z,0.20
2024-03-12T03:45:51.107Z,0.40
2024-03-12T03:47:53.142Z,0.25
2024-03-12T03:49:55.836Z,0.30
2024-03-12T03:51:57.738Z,0.28
2024-03-12T03:54:02.054Z,0.30
2024-03-12T03:56:04.043Z,0.30
2024-03-12T03:58:07.527Z,0.20
2024-03-12T04:00:16.063Z,0.20
2024-03-12T04:02:19.583Z,0.20
2024-03-12T04:04:21.523Z,0.28
2024-03-12T04:06:24.249Z,0.30
2024-03-12T04:08:25.867Z,0.20
2024-03-12T04:10:27.516Z,0.30
2024-03-12T04:12:29.977Z,0.30
2024-03-12T04:14:32.377Z,0.20
2024-03-12T04:16:33.985Z,0.20
2024-03-12T04:18:37.480Z,0.28
2024-03-12T04:20:39.657Z,0.20
2024-03-12T04:22:44.658Z,0.20
2024-03-12T04:24:47.628Z,0.20
2024-03-12T04:26:49.262Z,0.20
2024-03-12T04:28:50.963Z,0.20
2024-03-12T04:30:53.678Z,0.20
2024-03-12T04:32:55.359Z,0.28
2024-03-12T04:34:57.069Z,0.20
2024-03-12T04:36:59.642Z,0.30
2024-03-12T04:39:01.301Z,0.20
2024-03-12T04:41:03.043Z,0.20
2024-03-12T04:43:04.870Z,0.20
2024-03-12T04:45:07.871Z,0.20
2024-03-12T04:47:10.806Z,0.20
2024-03-12T04:49:12.991Z,0.30
2024-03-12T04:51:15.832Z,0.38
2024-03-12T04:53:22.357Z,0.20
2024-03-12T04:55:25.150Z,0.20
2024-03-12T04:57:27.007Z,0.20
2024-03-12T04:59:28.874Z,0.22
2024-03-12T05:01:30.655Z,0.30
2024-03-12T05:03:32.372Z,0.20
2024-03-12T05:05:34.036Z,0.20
2024-03-12T05:07:35.864Z,0.20
2024-03-12T05:09:37.498Z,0.20
2024-03-12T05:11:39.267Z,0.20
2024-03-12T05:13:42.582Z,0.20
2024-03-12T05:15:44.264Z,0.20
2024-03-12T05:17:50.034Z,0.20
2024-03-12T05:19:51.851Z,0.20
2024-03-12T05:21:53.912Z,0.20
2024-03-12T05:23:56.062Z,0.20
2024-03-12T05:25:57.891Z,0.28
2024-03-12T05:28:00.226Z,0.20
2024-03-12T05:30:11.117Z,0.20
2024-03-12T05:32:18.971Z,0.20
2024-03-12T05:34:30.196Z,0.20
2024-03-12T05:36:41.789Z,0.20
2024-03-12T05:38:56.067Z,0.20
2024-03-12T05:41:09.803Z,0.20
2024-03-12T05:43:32.011Z,0.30
2024-03-12T05:45:52.387Z,0.20
2024-03-12T05:48:10.634Z,0.20
2024-03-12T05:50:18.268Z,0.30
2024-03-12T05:52:20.215Z,0.20
2024-03-12T05:56:28.402Z,0.20
2024-03-12T05:58:30.866Z,0.10
2024-03-12T06:00:33.363Z,0.20
2024-03-12T06:02:35.266Z,0.20
2024-03-12T06:04:36.946Z,0.20
2024-03-12T06:06:42.416Z,0.20
2024-03-12T06:08:46.277Z,0.20
2024-03-12T06:10:48.391Z,0.20
2024-03-12T06:12:50.707Z,0.20
2024-03-12T06:14:52.532Z,0.20
2024-03-12T06:16:54.324Z,0.20
2024-03-12T06:18:56.006Z,0.20
2024-03-12T06:20:58.046Z,0.20
2024-03-12T06:23:00.509Z,0.20
2024-03-12T06:25:02.526Z,0.20
2024-03-12T06:27:04.684Z,0.20
2024-03-12T06:29:07.364Z,0.30
2024-03-12T06:31:09.389Z,0.20
2024-03-12T06:33:13.297Z,0.20
2024-03-12T06:35:15.226Z,0.22
2024-03-12T06:37:17.023Z,0.20
2024-03-12T06:39:19.027Z,0.20
2024-03-12T06:41:21.877Z,0.28
2024-03-12T06:45:32.929Z,0.25
2024-03-12T06:47:40.030Z,0.20
2024-03-12T06:49:45.748Z,0.13
2024-03-12T06:51:48.555Z,0.20
2024-03-12T06:53:50.439Z,0.20
2024-03-12T06:55:52.158Z,0.20
2024-03-12T06:58:06.282Z,0.20
2024-03-12T07:00:12.310Z,0.20
2024-03-12T07:02:14.841Z,0.25
2024-03-12T07:04:16.609Z,0.20
2024-03-12T07:06:20.767Z,0.20
2024-03-12T07:08:27.242Z,0.20
2024-03-12T07:10:30.523Z,0.20
2024-03-12T07:12:34.022Z,0.20
2024-03-12T07:14:55.653Z,0.20
2024-03-12T07:16:57.588Z,0.20
2024-03-12T07:18:59.257Z,0.20
2024-03-12T07:21:00.984Z,0.30
2024-03-12T07:23:03.328Z,0.28
2024-03-12T07:25:07.281Z,0.30
2024-03-12T07:27:10.397Z,0.30
2024-03-12T07:29:12.015Z,0.20
2024-03-12T07:31:13.759Z,0.20
2024-03-12T07:33:17.600Z,0.20
2024-03-12T07:35:19.368Z,0.20
2024-03-12T07:37:21.997Z,0.20
2024-03-12T07:39:26.360Z,0.20
2024-03-12T07:41:28.008Z,0.20
2024-03-12T07:43:31.030Z,0.20
2024-03-12T07:45:32.811Z,0.20
2024-03-12T07:47:34.629Z,0.40
2024-03-12T07:49:39.171Z,0.20
2024-03-12T07:51:40.924Z,0.40
2024-03-12T07:53:42.536Z,0.30
2024-03-12T07:55:44.529Z,0.20
2024-03-12T07:57:46.351Z,0.20
2024-03-12T07:59:48.139Z,0.20
2024-03-12T08:01:58.527Z,0.20
2024-03-12T08:04:00.377Z,0.20
2024-03-12T08:06:02.015Z,0.30
2024-03-12T08:08:07.555Z,0.20
2024-03-12T08:10:10.806Z,0.17
2024-03-12T08:12:16.376Z,0.20
2024-03-12T08:14:19.690Z,0.20
2024-03-12T08:16:21.658Z,0.25
2024-03-12T08:18:23.800Z,0.30
2024-03-12T08:20:25.470Z,0.20
2024-03-12T08:22:28.203Z,0.30
2024-03-12T08:24:30.589Z,0.20
2024-03-12T08:26:32.859Z,0.30
2024-03-12T08:28:34.904Z,0.25
2024-03-12T08:30:36.994Z,0.20
2024-03-12T08:32:39.775Z,0.30
2024-03-12T08:34:43.256Z,0.20
2024-03-12T08:36:47.216Z,0.30
2024-03-12T08:38:49.101Z,0.20
2024-03-12T08:40:50.833Z,0.22
2024-03-12T08:43:01.520Z,0.22
2024-03-12T08:45:05.452Z,0.30
2024-03-12T08:47:09.670Z,0.30
2024-03-12T08:49:14.546Z,0.20
2024-03-12T08:51:16.157Z,0.20
2024-03-12T08:53:17.715Z,0.20
2024-03-12T08:55:19.695Z,0.20
2024-03-12T08:57:21.696Z,0.20
2024-03-12T08:59:23.588Z,0.20
2024-03-12T09:01:26.192Z,0.30
2024-03-12T09:03:28.012Z,0.20
2024-03-12T09:05:30.113Z,0.20
2024-03-12T09:07:31.804Z,0.20
2024-03-12T09:09:33.528Z,0.30
2024-03-12T09:11:35.316Z,0.20
2024-03-12T09:13:36.996Z,0.20
2024-03-12T09:15:38.681Z,0.20
2024-03-12T09:17:40.828Z,0.30
2024-03-12T09:19:43.816Z,0.30
2024-03-12T09:21:45.524Z,0.28
2024-03-12T09:23:56.384Z,0.20
2024-03-12T09:26:05.120Z,0.28
2024-03-12T09:28:06.782Z,0.20
2024-03-12T09:30:09.165Z,0.22
2024-03-12T09:32:10.977Z,0.25
2024-03-12T09:34:13.551Z,0.30
2024-03-12T09:36:15.769Z,0.20
2024-03-12T09:38:18.203Z,0.20
2024-03-12T09:40:19.967Z,0.13
2024-03-12T09:42:23.459Z,0.20
2024-03-12T09:44:25.663Z,0.20
2024-03-12T09:46:27.448Z,0.30
2024-03-12T09:48:30.626Z,0.30
2024-03-12T09:50:32.816Z,0.20
2024-03-12T09:52:34.921Z,0.30
2024-03-12T09:54:36.742Z,0.20
2024-03-12T09:56:39.296Z,0.20
2024-03-12T09:58:41.129Z,0.20
2024-03-12T10:00:42.796Z,0.25
2024-03-12T10:02:45.606Z,0.20
2024-03-12T10:04:49.932Z,0.20
2024-03-12T10:06:52.148Z,0.20
2024-03-12T10:09:01.036Z,0.20
2024-03-12T10:11:09.984Z,0.28
2024-03-12T10:13:16.007Z,0.20
2024-03-12T10:15:17.874Z,0.20
2024-03-12T10:17:22.206Z,0.20
2024-03-12T10:19:26.343Z,0.20
2024-03-12T10:21:29.405Z,0.20
2024-03-12T10:23:33.178Z,0.20
2024-03-12T10:25:36.975Z,0.20
2024-03-12T10:28:06.665Z,0.20
2024-03-12T10:30:25.375Z,0.30
2024-03-12T10:32:27.872Z,0.20
2024-03-12T10:34:29.522Z,0.20
2024-03-12T10:36:32.971Z,0.20
2024-03-12T10:38:36.459Z,0.20
2024-03-12T10:40:39.703Z,0.20
2024-03-12T10:42:52.563Z,0.28
2024-03-12T10:44:54.213Z,0.20
2024-03-12T10:46:59.447Z,0.17
2024-03-12T10:49:02.089Z,0.20
2024-03-12T10:51:04.266Z,0.20
2024-03-12T10:53:05.969Z,0.20
2024-03-12T10:55:10.774Z,0.20
2024-03-12T10:57:16.160Z,0.20
2024-03-12T10:59:17.856Z,0.28
2024-03-12T11:01:20.350Z,0.20
2024-03-12T11:03:24.456Z,0.20
2024-03-12T11:05:28.516Z,0.20
2024-03-12T11:07:31.742Z,0.20
2024-03-12T11:09:34.817Z,0.20
2024-03-12T11:11:37.814Z,0.20
2024-03-12T11:13:39.693Z,0.25
2024-03-12T11:15:41.735Z,0.20
2024-03-12T11:17:50.675Z,0.15
2024-03-12T11:19:52.337Z,0.20
2024-03-12T11:21:55.567Z,0.20
2024-03-12T11:23:58.600Z,0.20
2024-03-12T11:26:05.658Z,0.15
2024-03-12T11:28:24.198Z,0.20
2024-03-12T11:30:28.948Z,0.20
2024-03-12T11:32:43.652Z,0.20
2024-03-12T11:34:45.238Z,0.20
2024-03-12T11:36:49.797Z,0.20
2024-03-12T11:38:55.558Z,0.22
2024-03-12T11:40:57.868Z,0.20
2024-03-12T11:42:59.760Z,0.20
2024-03-12T11:45:02.724Z,0.20
2024-03-12T11:47:04.544Z,0.20
2024-03-12T11:49:07.395Z,0.20
2024-03-12T11:51:15.750Z,0.20
2024-03-12T11:53:19.406Z,0.20
2024-03-12T11:55:52.455Z,0.20
2024-03-12T11:57:56.216Z,0.20
2024-03-12T11:59:58.986Z,0.13
2024-03-12T12:02:02.581Z,0.13
2024-03-12T12:04:06.803Z,0.20
2024-03-12T12:06:11.648Z,0.20
2024-03-12T12:08:16.103Z,0.30
2024-03-12T12:10:18.092Z,0.20
2024-03-12T12:12:20.839Z,0.30
2024-03-12T12:14:23.315Z,0.20
2024-03-12T12:16:26.061Z,0.20
2024-03-12T12:18:38.667Z,0.20
2024-03-12T12:20:40.254Z,0.20
2024-03-12T12:22:50.252Z,0.20
2024-03-12T12:24:52.055Z,0.20
2024-03-12T12:26:55.004Z,0.20
2024-03-12T12:28:58.331Z,0.30
2024-03-12T12:31:03.983Z,0.30
2024-03-12T12:33:07.885Z,0.30
2024-03-12T12:35:13.870Z,0.30
2024-03-12T12:37:18.003Z,0.22
2024-03-12T12:39:21.023Z,0.20
2024-03-12T12:41:23.585Z,0.20
2024-03-12T12:43:27.599Z,0.20
2024-03-12T12:45:30.990Z,0.20
2024-03-12T12:47:33.476Z,0.20
2024-03-12T12:49:36.365Z,0.20
2024-03-12T12:51:39.017Z,0.20
2024-03-12T12:53:40.967Z,0.20
2024-03-12T12:55:42.672Z,0.20
2024-03-12T12:57:45.532Z,0.20
2024-03-12T12:59:48.460Z,0.20
2024-03-12T13:01:51.109Z,0.17
2024-03-12T13:03:55.080Z,0.20
2024-03-12T13:06:16.741Z,0.20
2024-03-12T13:08:24.088Z,0.20
2024-03-12T13:10:27.984Z,0.20
2024-03-12T13:12:29.724Z,0.20
2024-03-12T13:14:31.540Z,0.20
2024-03-12T13:16:35.022Z,0.20
2024-03-12T13:18:41.778Z,0.20
2024-03-12T13:20:44.619Z,0.20
2024-03-12T13:22:52.487Z,0.20
2024-03-12T13:24:54.920Z,0.20
2024-03-12T13:26:56.569Z,0.15
2024-03-12T13:28:58.153Z,0.28
2024-03-12T13:31:00.009Z,0.20
2024-03-12T13:33:02.043Z,0.20
2024-03-12T13:35:04.062Z,0.20
2024-03-12T13:37:08.310Z,0.20
2024-03-12T13:39:10.192Z,0.20
2024-03-12T13:41:12.285Z,0.20
2024-03-12T13:43:14.188Z,0.20
2024-03-12T13:45:15.821Z,0.20
2024-03-12T13:47:19.431Z,0.20
2024-03-12T13:49:24.159Z,0.20
2024-03-12T13:51:25.938Z,0.20
2024-03-12T13:53:29.022Z,0.28
2024-03-12T13:55:30.813Z,0.20
2024-03-12T13:57:32.640Z,0.20
2024-03-12T13:59:35.567Z,0.30
2024-03-12T14:01:38.196Z,0.25
2024-03-12T14:03:41.558Z,0.30
2024-03-12T14:05:47.256Z,0.30
2024-03-12T14:07:49.182Z,0.22
2024-03-12T14:09:51.023Z,0.20
2024-03-12T14:11:55.996Z,0.20
2024-03-12T14:13:57.779Z,0.20
2024-03-12T14:16:00.233Z,0.20
2024-03-12T14:18:02.209Z,0.30
2024-03-12T14:20:12.523Z,0.20
2024-03-12T14:22:14.315Z,0.30
2024-03-12T14:24:15.957Z,0.30
2024-03-12T14:26:18.039Z,0.40
2024-03-12T14:28:20.876Z,0.30
2024-03-12T14:30:26.545Z,0.30
2024-03-12T14:32:28.510Z,0.30
2024-03-12T14:34:30.210Z,0.20
2024-03-12T14:36:32.641Z,0.30
2024-03-12T14:38:34.313Z,0.20
2024-03-12T14:40:36.415Z,0.30
2024-03-12T14:42:41.842Z,0.20
2024-03-12T14:44:43.528Z,0.20
2024-03-12T14:46:48.062Z,0.20
2024-03-12T14:48:53.535Z,0.20
2024-03-12T14:50:56.373Z,0.20
2024-03-12T14:52:58.019Z,0.20
2024-03-12T14:55:00.802Z,0.30
2024-03-12T14:57:04.652Z,0.20
2024-03-12T14:59:06.987Z,0.20
2024-03-12T15:01:11.207Z,0.25
2024-03-12T15:03:13.840Z,0.10
2024-03-12T15:05:15.888Z,0.17
2024-03-12T15:07:20.610Z,0.20
2024-03-12T15:09:22.605Z,0.10
2024-03-12T15:11:24.377Z,0.20
2024-03-12T15:13:26.280Z,0.20
2024-03-12T15:15:30.318Z,0.13
2024-03-12T15:17:31.910Z,0.20
2024-03-12T15:19:34.717Z,0.20
2024-03-12T15:21:38.730Z,0.20
2024-03-12T15:23:40.627Z,0.20
2024-03-12T15:25:43.037Z,0.20
2024-03-12T15:27:44.803Z,0.20
2024-03-12T15:29:46.653Z,0.15
2024-03-12T15:31:48.284Z,0.20
2024-03-12T15:33:52.254Z,0.20
2024-03-12T15:35:53.873Z,0.20
2024-03-12T15:37:59.709Z,0.25
2024-03-12T15:40:01.809Z,0.40
2024-03-12T15:42:03.824Z,0.22
2024-03-12T15:44:07.587Z,0.30
2024-03-12T15:46:12.474Z,0.35
2024-03-12T15:48:14.854Z,0.30
2024-03-12T15:50:17.076Z,0.30
2024-03-12T15:52:19.137Z,0.30
2024-03-12T15:54:20.848Z,0.40
2024-03-12T15:56:24.216Z,0.20
2024-03-12T15:58:27.094Z,0.40
2024-03-12T16:00:29.419Z,0.30
2024-03-12T16:02:31.074Z,0.30
2024-03-12T16:04:33.776Z,0.20
2024-03-12T16:06:36.995Z,0.20
2024-03-12T16:08:39.189Z,0.30
2024-03-12T16:10:40.823Z,0.30
2024-03-12T16:12:45.869Z,0.40
2024-03-12T16:14:48.289Z,0.20
2024-03-12T16:16:51.445Z,0.20
2024-03-12T16:18:55.121Z,0.30
2024-03-12T16:20:56.796Z,0.20
2024-03-12T16:22:58.675Z,0.20
2024-03-12T16:25:00.490Z,0.20
2024-03-12T16:27:03.341Z,0.25
2024-03-12T16:29:04.974Z,0.25
2024-03-12T16:31:06.658Z,0.20
2024-03-12T16:33:08.584Z,0.20
2024-03-12T16:35:10.532Z,0.20
2024-03-12T16:37:14.656Z,0.20
2024-03-12T16:39:16.361Z,0.20
2024-03-12T16:41:18.477Z,0.20
2024-03-12T16:43:20.343Z,0.20
2024-03-12T16:45:22.020Z,0.20
2024-03-12T16:47:23.650Z,0.20
2024-03-12T16:49:27.072Z,0.20
2024-03-12T16:51:29.442Z,0.20
2024-03-12T16:53:32.287Z,0.20
2024-03-12T16:55:34.459Z,0.20
2024-03-12T16:57:36.887Z,0.20
2024-03-12T16:59:39.089Z,0.13
2024-03-12T17:01:41.149Z,0.20
2024-03-12T17:03:43.309Z,0.20
2024-03-12T17:05:46.101Z,0.20
2024-03-12T17:07:59.490Z,0.20
2024-03-12T17:10:01.407Z,0.20
2024-03-12T17:12:06.083Z,0.20
2024-03-12T17:14:12.227Z,0.20
2024-03-12T17:16:21.463Z,0.30
2024-03-12T17:18:27.002Z,0.20
2024-03-12T17:20:33.001Z,0.22
2024-03-12T17:22:36.115Z,0.20
2024-03-12T17:24:40.207Z,0.20
2024-03-12T17:26:42.204Z,0.20
2024-03-12T17:28:44.341Z,0.20
2024-03-12T17:30:46.266Z,0.20
2024-03-12T17:32:48.308Z,0.20
2024-03-12T17:34:50.543Z,0.20
2024-03-12T17:36:54.572Z,0.20
2024-03-12T17:38:56.866Z,0.20
2024-03-12T17:41:01.448Z,0.20
2024-03-12T17:43:03.378Z,0.20
2024-03-12T17:45:07.480Z,0.20
2024-03-12T17:47:09.561Z,0.20
2024-03-12T17:49:19.666Z,0.20
2024-03-12T17:51:23.879Z,0.13
2024-03-12T17:53:26.806Z,0.20
2024-03-12T17:55:32.062Z,0.20
2024-03-12T17:57:34.541Z,0.22
2024-03-12T17:59:39.748Z,0.20
2024-03-12T18:01:41.680Z,0.20
2024-03-12T18:03:44.108Z,0.20
2024-03-12T18:05:45.930Z,0.20
2024-03-12T18:07:48.772Z,0.20
2024-03-12T18:09:56.086Z,0.20
2024-03-12T18:11:58.679Z,0.20
2024-03-12T18:14:00.567Z,0.30
2024-03-12T18:16:02.282Z,0.20
2024-03-12T18:18:08.199Z,0.20
2024-03-12T18:20:20.633Z,0.20
2024-03-12T18:22:23.297Z,0.30
2024-03-12T18:24:25.040Z,0.30
2024-03-12T18:26:28.594Z,0.20
2024-03-12T18:28:30.747Z,0.30
2024-03-12T18:30:34.213Z,0.30
2024-03-12T18:32:36.055Z,0.30
2024-03-12T18:34:38.833Z,0.20
2024-03-12T18:36:40.810Z,0.20
2024-03-12T18:38:42.530Z,0.30
2024-03-12T18:40:44.258Z,0.20
2024-03-12T18:42:47.386Z,0.30
2024-03-12T18:44:49.430Z,0.50
2024-03-12T18:46:51.423Z,0.30
2024-03-12T18:48:53.505Z,0.50
2024-03-12T18:50:55.394Z,0.40
2024-03-12T18:52:57.309Z,0.50
2024-03-12T18:54:59.720Z,0.40
2024-03-12T18:57:01.802Z,0.38
2024-03-12T18:59:03.927Z,0.40
2024-03-12T19:01:06.282Z,0.65
2024-03-12T19:03:19.247Z,0.50
2024-03-12T19:05:23.443Z,0.60
2024-03-12T19:07:26.237Z,0.50
2024-03-12T19:09:28.163Z,0.55
2024-03-12T19:11:31.778Z,0.60
2024-03-12T19:13:34.046Z,0.80
2024-03-12T19:15:38.039Z,0.80
2024-03-12T19:17:42.232Z,0.60
2024-03-12T19:19:46.181Z,0.60
2024-03-12T19:21:48.360Z,0.63
2024-03-12T19:23:50.253Z,0.60
2024-03-12T19:25:52.146Z,0.60
2024-03-12T19:27:54.059Z,0.60
2024-03-12T19:29:56.348Z,0.52
2024-03-12T19:31:58.331Z,0.50
2024-03-12T19:34:00.273Z,0.50
2024-03-12T19:36:05.043Z,0.55
2024-03-12T19:38:07.319Z,0.47
2024-03-12T19:40:13.419Z,0.40
2024-03-12T19:42:15.684Z,0.40
2024-03-12T19:44:17.425Z,0.40
2024-03-12T19:46:20.178Z,0.50
2024-03-12T19:48:28.215Z,0.50
2024-03-12T19:50:30.318Z,0.38
2024-03-12T19:52:32.820Z,0.40
2024-03-12T19:54:34.464Z,0.30
2024-03-12T19:56:36.309Z,0.30
2024-03-12T19:58:38.353Z,0.30
2024-03-12T20:00:41.327Z,0.20
2024-03-12T20:02:43.505Z,0.30
2024-03-12T20:04:45.280Z,0.30
2024-03-12T20:06:47.691Z,0.30
2024-03-12T20:08:51.774Z,0.30
2024-03-12T20:10:56.781Z,0.20
2024-03-12T20:12:59.494Z,0.30
2024-03-12T20:15:14.459Z,0.20
2024-03-12T20:17:16.416Z,0.30
2024-03-12T20:19:20.606Z,0.30
2024-03-12T20:21:24.161Z,0.30
2024-03-12T20:23:27.551Z,0.20
2024-03-12T20:25:30.558Z,0.20
2024-03-12T20:27:38.847Z,0.28
2024-03-12T20:29:40.554Z,0.20
2024-03-12T20:31:42.374Z,0.20
2024-03-12T20:33:44.207Z,0.22
2024-03-12T20:35:46.505Z,0.20
2024-03-12T20:37:49.007Z,0.20
2024-03-12T20:39:51.915Z,0.20
2024-03-12T20:41:54.079Z,0.20
2024-03-12T20:43:55.760Z,0.20
2024-03-12T20:45:57.524Z,0.20
2024-03-12T20:47:59.685Z,0.20
2024-03-12T20:50:01.480Z,0.20
2024-03-12T20:52:05.875Z,0.20
2024-03-12T20:54:08.212Z,0.22
2024-03-12T20:56:09.916Z,0.20
2024-03-12T20:58:13.082Z,0.22
2024-03-12T21:00:24.324Z,0.20
2024-03-12T21:02:29.313Z,0.20
2024-03-12T21:04:30.950Z,0.20
2024-03-12T21:06:32.605Z,0.20
2024-03-12T21:08:34.746Z,0.20
2024-03-12T21:10:37.818Z,0.20
2024-03-12T21:12:49.662Z,0.20
2024-03-12T21:14:51.786Z,0.20
2024-03-12T21:16:53.968Z,0.28
2024-03-12T21:18:55.786Z,0.10
2024-03-12T21:20:57.560Z,0.20
2024-03-12T21:22:59.331Z,0.20
2024-03-12T21:25:00.967Z,0.20
2024-03-12T21:27:03.321Z,0.20
2024-03-12T21:29:08.236Z,0.20
2024-03-12T21:31:10.735Z,0.10
2024-03-12T21:33:13.500Z,0.20
2024-03-12T21:35:16.682Z,0.20
2024-03-12T21:37:18.600Z,0.28
2024-03-12T21:39:23.174Z,0.30
2024-03-12T21:41:24.845Z,0.25
2024-03-12T21:43:26.515Z,0.20
2024-03-12T21:45:28.258Z,0.20
2024-03-12T21:47:30.189Z,0.20
2024-03-12T21:49:31.967Z,0.20
2024-03-12T21:51:33.707Z,0.30
2024-03-12T21:55:42.571Z,0.20
2024-03-12T21:59:50.825Z,0.25
2024-03-12T22:01:52.516Z,0.20
2024-03-12T22:03:54.515Z,0.20
2024-03-12T22:10:15.123Z,0.20
2024-03-12T22:12:17.193Z,0.20
2024-03-12T22:14:18.876Z,0.20
2024-03-12T22:16:20.601Z,0.20
2024-03-12T22:22:30.455Z,0.20
2024-03-12T22:24:33.031Z,0.22
2024-03-12T22:26:34.641Z,0.20
2024-03-12T22:35:00.990Z,0.20
2024-03-12T22:37:03.020Z,0.20
2024-03-12T22:41:13.174Z,0.20
2024-03-12T22:45:22.063Z,0.20
2024-03-12T22:47:23.977Z,0.22
2024-03-12T22:49:25.950Z,0.13
2024-03-12T22:51:28.703Z,0.20
2024-03-12T22:53:32.772Z,0.17
2024-03-12T22:59:52.750Z,0.20
2024-03-12T23:01:57.639Z,0.20
2024-03-12T23:04:02.327Z,0.20
2024-03-12T23:06:07.355Z,0.20
2024-03-12T23:08:12.337Z,0.20
2024-03-12T23:12:20.586Z,0.20
2024-03-12T23:14:23.521Z,0.20
2024-03-12T23:16:26.046Z,0.20
2024-03-12T23:18:27.724Z,0.20
2024-03-12T23:20:31.519Z,0.20
2024-03-12T23:22:34.122Z,0.20
2024-03-12T23:24:36.216Z,0.20
2024-03-12T23:26:37.810Z,0.20
2024-03-12T23:28:39.452Z,0.20
2024-03-12T23:30:41.348Z,0.10
2024-03-12T23:32:46.230Z,0.20
2024-03-12T23:34:48.154Z,0.20
2024-03-12T23:36:49.967Z,0.25
2024-03-12T23:38:51.578Z,0.20
2024-03-12T23:40:54.459Z,0.20
2024-03-12T23:42:56.304Z,0.20
2024-03-12T23:44:58.247Z,0.20
2024-03-12T23:47:00.035Z,0.20
2024-03-12T23:49:03.608Z,0.20
2024-03-12T23:51:05.402Z,0.20
2024-03-12T23:53:07.057Z,0.13
2024-03-12T23:55:15.158Z,0.20
2024-03-12T23:57:17.096Z,0.20
2024-03-12T23:59:20.723Z,0.20
